Salisbury, MD (21801)

5:47 AM EST on January 24, 2017 (GMT -0500)
Ocean Gateway | | Change Station
Active Advisory: Small Craft Advisory

Elev 56 ft 38.38 °N, 75.62 °W | Updated 1 minute ago

Overcast
Overcast
38.2 °F
Feels Like 38 °F
N
3.0
Wind Variable Wind from West

Today
High -- | Low -- °F
--% Chance of Precip.
Yesterday
High -- | Low -- °F
Precip. -- in
Pressure 29.36 in
Visibility 9.0 miles
Clouds Overcast 800 ft
Windchill 38 °F
Dew Point 38 °F
Humidity 98%
Rainfall 0.23 in
Snow Depth Not available.
7:13 AM 5:16 PM
Waning Crescent, 12% visible
METAR KSBY 240954Z AUTO 34011KT 9SM OVC008 04/03 A2935 RMK AO2 CIG 006V013 SLP942 T00390033 TSNO
Pressure 29.36 in
Visibility 9.0 miles
Clouds Overcast 800 ft
Windchill 38 °F
Dew Point 38 °F
Humidity 98%
Rainfall 0.23 in
Snow Depth Not available.
7:13 AM 5:16 PM
Waning Crescent, 12% visible
METAR KSBY 240954Z AUTO 34011KT 9SM OVC008 04/03 A2935 RMK AO2 CIG 006V013 SLP942 T00390033 TSNO

Get Your Daily Forecast Email!

Thanks for signing up!

Be on the lookout for a verification email in your inbox.

You'll start receiving the daily forecast at 8 AM.

×

10-Day Weather Forecast

Almanac

Astronomy

Jan. 24, 2017 Rise Set
Actual Time
Civil Twilight
Nautical Twilight
Astronomical Twilight
Moon
Length of Visible Light
Length of Day
Tomorrow will be .
, % of the Moon is Illuminated

Today's Extremes

State Highs State Lows

Community

WunderPhotos

Upload Photos

1,962,540 photos uploaded!

WunderBlog® & News

Nearby

Air Quality

  Air Quality AQ Index Pollutant
Not available.

Snow Depth

Station Depth Elevation

Earthquake Activity

City Distance Mag. Time & Date
Minimum magnitude displayed is 2.5.

Coastal Water Temperatures

Place Temperature

Stations

Nearby Weather Stations

Station Location Temp. Windchill Dew Point Humidity Wind Precip. Elev Updated Type
                   

Watches & Warnings

Small Craft Advisory
Issued: 12:29 AM EST Jan. 24, 2017 – National Weather Service

... Small Craft Advisory remains in effect until 2 am EST
Wednesday...

* winds... 18 to 33 knots within the Small Craft Advisory.

Precautionary/preparedness actions...

A Small Craft Advisory means winds of 18 to 33 knots are imminent
or occurring. Boaters operating smaller vessels should avoid
navigating in these conditions.